Time;durP1;ratioP1;P1;durP2;ratioP2;P2;SDS_P1;SDS_P2;PMS_P1;PMS_P2;Temp;Humidity;BMP_temperature;BMP_pressure;BME280_temperature;BME280_humidity;BME280_pressure;Samples;Min_cycle;Max_cycle;Signal;HPM_P1;HPM_P2
2023/08/06 00:02:13;;;;;;;81.13;52.25;;;18.00;88.20;;;;;;4983814;28;90713;-84
2023/08/06 00:04:39;;;;;;;82.07;52.55;;;18.00;88.20;;;;;;4989562;28;89375;-85
2023/08/06 00:07:04;;;;;;;81.97;52.63;;;17.90;87.80;;;;;;4994639;28;88976;-85
2023/08/06 00:09:30;;;;;;;79.93;52.30;;;17.90;87.30;;;;;;4987534;28;90592;-85
2023/08/06 00:11:56;;;;;;;83.43;52.17;;;17.90;87.20;;;;;;4984563;28;89998;-84
2023/08/06 00:14:21;;;;;;;80.18;52.08;;;17.90;87.80;;;;;;4985237;28;90600;-86
2023/08/06 00:16:47;;;;;;;80.82;52.22;;;17.90;87.40;;;;;;4990930;28;89443;-85
2023/08/06 00:19:12;;;;;;;81.72;51.92;;;17.90;87.60;;;;;;4986029;28;90474;-85
2023/08/06 00:21:38;;;;;;;80.90;52.05;;;17.90;88.30;;;;;;4989751;28;89434;-85
2023/08/06 00:24:04;;;;;;;79.72;51.83;;;17.90;87.60;;;;;;4989264;28;89186;-85
2023/08/06 00:26:30;;;;;;;80.95;52.17;;;17.90;87.60;;;;;;4987170;28;88658;-86
2023/08/06 00:28:55;;;;;;;81.13;52.13;;;17.90;89.30;;;;;;4987103;28;90363;-86
2023/08/06 00:31:21;;;;;;;83.85;51.90;;;17.90;87.90;;;;;;4990365;28;89637;-85
2023/08/06 00:33:46;;;;;;;80.43;52.03;;;17.90;87.50;;;;;;4991990;28;90431;-86
2023/08/06 00:36:12;;;;;;;81.50;51.88;;;17.80;87.80;;;;;;4991815;28;89133;-85
2023/08/06 00:38:37;;;;;;;81.35;51.88;;;17.80;87.60;;;;;;4989896;28;90487;-86
2023/08/06 00:41:03;;;;;;;81.95;51.80;;;17.80;87.50;;;;;;4986542;28;89368;-85
2023/08/06 00:43:29;;;;;;;80.47;52.05;;;17.80;87.50;;;;;;4984001;28;89214;-85
2023/08/06 00:45:55;;;;;;;82.30;52.08;;;17.80;89.20;;;;;;4982093;28;90164;-85
2023/08/06 00:48:21;;;;;;;82.28;51.92;;;17.80;88.00;;;;;;4969452;28;89388;-85
2023/08/06 00:50:47;;;;;;;81.93;51.88;;;17.80;87.70;;;;;;4986754;28;90539;-85
2023/08/06 00:53:13;;;;;;;80.85;51.90;;;17.70;87.50;;;;;;4992318;28;88629;-85
2023/08/06 00:55:38;;;;;;;79.82;51.85;;;17.70;87.40;;;;;;5004731;28;89458;-85
2023/08/06 00:58:05;;;;;;;80.65;51.85;;;17.70;87.70;;;;;;5010480;28;90555;-85
2023/08/06 01:00:30;;;;;;;80.95;51.97;;;17.70;87.70;;;;;;4997377;28;92099;-85
2023/08/06 01:02:56;;;;;;;84.45;51.65;;;17.70;88.40;;;;;;5014308;28;92007;-85
2023/08/06 01:05:23;;;;;;;80.10;51.75;;;17.70;88.60;;;;;;4972868;28;93308;-85
2023/08/06 01:08:06;;;;;;;80.75;51.83;;;17.70;88.80;;;;;;4978691;28;90640;-85
2023/08/06 01:10:53;;;;;;;80.75;51.72;;;17.70;88.10;;;;;;4975398;28;90935;-85
2023/08/06 01:13:57;;;;;;;79.38;51.67;;;17.70;88.00;;;;;;4980489;28;89309;-85
2023/08/06 01:16:23;;;;;;;80.72;51.65;;;17.60;88.00;;;;;;4964557;28;90648;-85
2023/08/06 01:18:49;;;;;;;80.80;51.78;;;17.60;88.90;;;;;;4973071;28;89975;-85
2023/08/06 01:21:18;;;;;;;80.85;51.53;;;17.60;88.40;;;;;;4975012;28;89641;-86
2023/08/06 01:23:46;;;;;;;80.35;51.95;;;17.60;88.20;;;;;;4981954;28;92608;-85
2023/08/06 01:26:32;;;;;;;79.53;51.80;;;17.60;89.50;;;;;;4966787;28;89340;-85
2023/08/06 01:29:22;;;;;;;80.53;51.70;;;17.60;89.40;;;;;;4981307;28;91183;-85
2023/08/06 01:31:50;;;;;;;81.20;51.67;;;17.60;88.20;;;;;;4982070;28;89826;-85
2023/08/06 01:34:23;;;;;;;79.85;51.85;;;17.60;87.90;;;;;;4973952;28;89598;-86
2023/08/06 01:36:50;;;;;;;81.72;51.72;;;17.60;88.00;;;;;;4978237;28;89219;-85
2023/08/06 01:39:15;;;;;;;79.75;51.67;;;17.60;87.90;;;;;;4962657;28;93117;-85
2023/08/06 01:41:41;;;;;;;81.38;51.85;;;17.60;87.90;;;;;;4979534;28;92311;-85
2023/08/06 01:44:06;;;;;;;80.90;51.95;;;17.60;89.30;;;;;;4976960;28;89153;-85
2023/08/06 01:46:32;;;;;;;80.30;51.83;;;17.60;88.30;;;;;;4981730;28;89305;-85
2023/08/06 01:48:58;;;;;;;82.60;52.20;;;17.60;88.30;;;;;;4978087;28;90756;-86
2023/08/06 01:51:23;;;;;;;81.65;51.85;;;17.60;89.50;;;;;;4965267;28;93387;-85
2023/08/06 01:53:49;;;;;;;80.95;51.83;;;17.60;88.90;;;;;;4964907;28;89292;-86
2023/08/06 01:56:14;;;;;;;80.93;51.80;;;17.60;89.70;;;;;;4986274;28;88890;-84
2023/08/06 01:58:40;;;;;;;80.75;51.85;;;17.60;88.10;;;;;;4982604;28;91502;-85
2023/08/06 02:01:05;;;;;;;81.32;51.92;;;17.60;88.50;;;;;;4997712;28;91010;-85
2023/08/06 02:03:31;;;;;;;79.25;51.55;;;17.60;88.70;;;;;;4991287;28;90988;-85
2023/08/06 02:05:57;;;;;;;80.43;51.63;;;17.60;90.40;;;;;;4990285;28;87781;-85
2023/08/06 02:08:22;;;;;;;80.60;51.83;;;17.60;88.10;;;;;;4978170;28;93433;-86
2023/08/06 02:10:48;;;;;;;79.93;51.95;;;17.60;88.50;;;;;;4975664;28;90876;-86
2023/08/06 02:13:14;;;;;;;81.13;52.00;;;17.60;90.20;;;;;;4959950;28;89818;-85
2023/08/06 02:15:44;;;;;;;79.55;52.00;;;17.60;89.10;;;;;;4977483;28;92288;-85
2023/08/06 02:18:09;;;;;;;79.40;51.90;;;17.60;88.10;;;;;;4980446;28;90630;-85
2023/08/06 02:20:35;;;;;;;80.55;51.95;;;17.60;89.40;;;;;;4983454;28;90179;-86
2023/08/06 02:23:01;;;;;;;79.53;51.95;;;17.60;90.00;;;;;;4977554;28;89279;-86
2023/08/06 02:25:26;;;;;;;80.53;52.10;;;17.60;90.10;;;;;;4982963;28;90311;-85
2023/08/06 02:27:52;;;;;;;81.50;51.95;;;17.60;88.60;;;;;;4994935;28;91235;-87
2023/08/06 02:30:17;;;;;;;80.18;51.92;;;17.60;88.80;;;;;;4984319;28;89998;-87
2023/08/06 02:32:43;;;;;;;80.60;51.95;;;17.60;88.60;;;;;;4977268;28;92476;-85
2023/08/06 02:35:09;;;;;;;80.00;52.28;;;17.60;90.30;;;;;;4986887;28;91191;-88
2023/08/06 02:37:34;;;;;;;80.57;52.10;;;17.50;88.70;;;;;;4991774;28;90628;-88
2023/08/06 02:40:00;;;;;;;79.95;51.92;;;17.60;90.40;;;;;;4965271;28;92473;-89
2023/08/06 02:42:26;;;;;;;81.63;51.95;;;17.60;89.30;;;;;;4970916;28;90792;-88
2023/08/06 02:44:54;;;;;;;82.38;51.95;;;17.60;90.90;;;;;;4995012;28;89742;-88
2023/08/06 02:47:20;;;;;;;80.70;51.80;;;17.60;90.40;;;;;;5000273;28;90212;-90
2023/08/06 02:49:46;;;;;;;80.10;51.65;;;17.50;90.70;;;;;;4987657;28;90515;-87
2023/08/06 02:52:12;;;;;;;79.85;51.80;;;17.50;90.70;;;;;;5007935;28;88954;-88
2023/08/06 02:54:38;;;;;;;81.97;52.28;;;17.50;90.20;;;;;;5016497;27;89725;-87
2023/08/06 02:57:04;;;;;;;79.97;52.05;;;17.50;91.20;;;;;;4990025;28;92213;-89
2023/08/06 02:59:30;;;;;;;79.57;52.03;;;17.40;90.30;;;;;;4987967;28;92260;-88
2023/08/06 03:01:56;;;;;;;80.57;51.97;;;17.40;90.20;;;;;;4997972;28;91887;-89
2023/08/06 03:04:21;;;;;;;80.32;52.13;;;17.40;89.90;;;;;;4980291;28;89591;-88
2023/08/06 03:06:48;;;;;;;80.05;52.05;;;17.40;89.90;;;;;;5001229;28;89878;-88
2023/08/06 03:09:14;;;;;;;81.57;52.28;;;17.30;90.60;;;;;;4995416;28;93372;-87
2023/08/06 03:11:40;;;;;;;79.38;51.78;;;17.30;91.20;;;;;;4987862;28;91192;-86
2023/08/06 03:14:05;;;;;;;81.32;52.20;;;17.30;91.70;;;;;;4985430;28;92755;-88
2023/08/06 03:16:31;;;;;;;80.13;52.15;;;17.30;90.70;;;;;;4988202;28;90695;-88
2023/08/06 03:18:56;;;;;;;83.32;52.20;;;17.20;90.80;;;;;;4992864;28;89711;-88
2023/08/06 03:21:22;;;;;;;80.30;52.35;;;17.20;91.60;;;;;;4971053;28;89257;-87
2023/08/06 03:23:50;;;;;;;81.07;52.45;;;17.20;90.00;;;;;;4989659;28;89136;-88
2023/08/06 03:26:16;;;;;;;79.03;51.65;;;17.20;90.70;;;;;;4995715;28;89932;-88
2023/08/06 03:28:41;;;;;;;80.72;52.15;;;17.10;89.80;;;;;;4992945;28;91156;-88
2023/08/06 03:31:07;;;;;;;80.43;51.90;;;17.10;90.70;;;;;;4976542;28;89517;-88
2023/08/06 03:33:33;;;;;;;81.35;52.15;;;17.10;90.70;;;;;;4990296;28;89073;-87
2023/08/06 03:35:59;;;;;;;82.78;52.30;;;17.10;90.40;;;;;;4999020;28;91136;-88
2023/08/06 03:38:24;;;;;;;82.93;52.53;;;17.10;90.80;;;;;;4969909;28;93430;-87
2023/08/06 03:40:50;;;;;;;80.55;52.30;;;17.10;90.00;;;;;;4990432;28;92570;-87
2023/08/06 03:43:15;;;;;;;81.28;52.20;;;17.10;90.50;;;;;;4976997;28;90621;-88
2023/08/06 03:45:41;;;;;;;80.10;52.03;;;17.10;90.70;;;;;;4987393;28;91025;-87
2023/08/06 03:48:07;;;;;;;80.13;52.13;;;17.10;91.00;;;;;;4991847;28;89635;-87
2023/08/06 03:50:33;;;;;;;80.25;52.05;;;17.10;90.50;;;;;;4982973;28;91078;-87
2023/08/06 03:52:59;;;;;;;81.35;52.25;;;17.10;90.80;;;;;;4988334;28;89502;-87
2023/08/06 03:55:24;;;;;;;80.15;51.85;;;17.00;90.10;;;;;;4981817;28;92252;-88
2023/08/06 03:57:50;;;;;;;81.68;52.40;;;17.00;90.80;;;;;;4988851;28;92159;-87
2023/08/06 04:00:15;;;;;;;81.28;52.20;;;17.00;90.60;;;;;;4981960;28;89438;-89
2023/08/06 04:02:41;;;;;;;82.90;52.63;;;17.00;91.50;;;;;;4983821;28;89181;-88
2023/08/06 04:05:07;;;;;;;83.35;52.97;;;17.00;90.40;;;;;;5000673;28;90619;-87
2023/08/06 04:07:33;;;;;;;81.20;52.28;;;17.00;90.30;;;;;;4971911;28;92193;-87
2023/08/06 04:10:00;;;;;;;82.15;52.65;;;17.00;90.10;;;;;;4972486;28;90806;-86
2023/08/06 04:12:26;;;;;;;82.40;52.42;;;17.00;91.20;;;;;;4975048;28;89383;-86
2023/08/06 04:14:53;;;;;;;81.82;52.55;;;17.00;90.10;;;;;;4976311;28;92424;-88
2023/08/06 04:17:20;;;;;;;80.82;52.30;;;17.00;90.30;;;;;;4978880;28;90570;-87
2023/08/06 04:19:53;;;;;;;81.38;52.47;;;17.00;90.70;;;;;;4985066;28;89663;-88
2023/08/06 04:22:19;;;;;;;82.53;52.50;;;17.00;89.80;;;;;;4991574;28;89253;-87
2023/08/06 04:24:45;;;;;;;81.70;52.55;;;17.00;90.40;;;;;;4991795;28;90006;-87
2023/08/06 04:27:11;;;;;;;81.15;52.60;;;17.00;90.50;;;;;;4976196;28;93340;-87
2023/08/06 04:29:37;;;;;;;81.65;52.53;;;17.00;90.10;;;;;;4980249;28;90833;-88
2023/08/06 04:32:08;;;;;;;83.30;52.95;;;17.00;90.10;;;;;;4978700;28;88111;-89
2023/08/06 04:34:34;;;;;;;81.10;52.50;;;17.00;90.50;;;;;;4982900;28;93799;-87
2023/08/06 04:37:00;;;;;;;81.90;52.60;;;17.00;90.20;;;;;;4993876;28;92635;-87
2023/08/06 04:39:26;;;;;;;80.60;52.60;;;17.00;90.80;;;;;;4994033;28;90127;-88
2023/08/06 04:41:52;;;;;;;84.95;53.15;;;17.00;90.30;;;;;;4990790;28;89405;-88
2023/08/06 04:44:18;;;;;;;81.82;52.92;;;17.00;91.40;;;;;;4994443;28;90411;-90
2023/08/06 04:46:43;;;;;;;82.45;52.65;;;17.00;90.70;;;;;;4989866;28;89472;-87
2023/08/06 04:49:09;;;;;;;83.15;52.85;;;17.00;90.20;;;;;;5011899;27;88990;-88
2023/08/06 04:51:34;;;;;;;81.25;52.63;;;17.00;91.60;;;;;;4987407;28;89170;-87
2023/08/06 04:54:01;;;;;;;80.43;52.55;;;16.90;90.40;;;;;;4976259;28;91350;-86
2023/08/06 04:56:27;;;;;;;81.28;52.55;;;17.00;90.80;;;;;;4979451;28;89687;-86
2023/08/06 04:58:53;;;;;;;82.38;53.03;;;17.00;91.30;;;;;;4959805;28;89906;-86
2023/08/06 05:01:19;;;;;;;79.85;52.17;;;17.00;90.40;;;;;;4974093;28;90113;-86
2023/08/06 05:03:47;;;;;;;81.35;52.70;;;17.00;90.70;;;;;;4977415;28;91562;-86
2023/08/06 05:06:12;;;;;;;82.95;53.35;;;17.00;91.70;;;;;;4965848;28;92621;-87
2023/08/06 05:08:38;;;;;;;80.80;52.55;;;17.00;89.70;;;;;;4977064;28;89557;-88
2023/08/06 05:11:04;;;;;;;81.93;52.83;;;17.00;89.30;;;;;;4972168;28;92668;-87
2023/08/06 05:13:29;;;;;;;82.40;52.50;;;16.90;89.50;;;;;;4981848;28;89672;-86
2023/08/06 05:15:55;;;;;;;83.72;52.83;;;17.00;91.10;;;;;;4977307;28;89682;-87
2023/08/06 05:18:21;;;;;;;81.18;52.85;;;17.00;91.10;;;;;;4976093;28;91294;-87
2023/08/06 05:20:46;;;;;;;81.25;53.00;;;17.00;90.30;;;;;;4974179;28;88928;-86
2023/08/06 05:23:12;;;;;;;82.10;52.70;;;17.00;90.40;;;;;;4978956;28;90494;-87
2023/08/06 05:25:38;;;;;;;81.45;52.97;;;16.90;90.20;;;;;;4971265;28;90213;-87
2023/08/06 05:28:04;;;;;;;83.43;52.63;;;16.90;89.30;;;;;;4976712;28;91584;-87
2023/08/06 05:30:30;;;;;;;81.43;52.65;;;16.90;89.30;;;;;;4970811;28;89648;-86
2023/08/06 05:32:56;;;;;;;83.15;53.15;;;17.00;90.40;;;;;;4979158;28;90484;-86
2023/08/06 05:35:22;;;;;;;81.25;52.65;;;16.90;90.00;;;;;;4976727;28;92442;-86
2023/08/06 05:37:49;;;;;;;81.47;52.72;;;16.90;89.60;;;;;;4975756;28;91139;-86
2023/08/06 05:40:15;;;;;;;84.00;52.83;;;17.00;90.60;;;;;;4975818;28;93349;-86
2023/08/06 05:42:41;;;;;;;81.20;52.47;;;16.90;90.70;;;;;;4978787;28;91065;-86
2023/08/06 05:45:07;;;;;;;81.10;52.72;;;16.90;89.50;;;;;;4982638;28;90072;-86
2023/08/06 05:47:33;;;;;;;83.15;52.75;;;16.90;88.80;;;;;;4962266;28;90438;-85
2023/08/06 05:49:58;;;;;;;81.05;52.78;;;16.90;89.20;;;;;;4979553;28;92170;-86
2023/08/06 05:52:24;;;;;;;81.32;52.55;;;16.90;89.60;;;;;;4969523;28;94511;-87
2023/08/06 05:54:50;;;;;;;81.45;52.67;;;16.90;90.10;;;;;;4976547;28;91645;-87
2023/08/06 05:57:16;;;;;;;82.53;52.58;;;16.90;90.50;;;;;;4978825;28;89734;-87
2023/08/06 05:59:42;;;;;;;82.60;52.72;;;16.90;89.80;;;;;;4978134;28;91348;-87
2023/08/06 06:02:07;;;;;;;82.63;52.45;;;16.90;90.30;;;;;;4977873;28;89807;-86
2023/08/06 06:04:33;;;;;;;80.45;52.08;;;16.90;89.90;;;;;;4983977;28;89024;-86
2023/08/06 06:06:59;;;;;;;81.03;52.35;;;16.90;88.90;;;;;;4984296;28;89358;-86
2023/08/06 06:09:24;;;;;;;81.20;52.08;;;16.90;89.60;;;;;;4977582;28;88757;-86
2023/08/06 06:11:50;;;;;;;81.70;52.50;;;16.90;89.40;;;;;;4955771;28;93215;-87
2023/08/06 06:14:17;;;;;;;81.20;52.10;;;16.90;89.60;;;;;;4980511;28;92947;-85
2023/08/06 06:16:42;;;;;;;81.47;52.35;;;16.90;89.70;;;;;;4975542;28;92663;-84
2023/08/06 06:19:08;;;;;;;79.95;52.20;;;16.90;89.20;;;;;;4979847;28;91373;-84
2023/08/06 06:21:34;;;;;;;81.53;52.35;;;16.90;89.30;;;;;;4967744;28;92565;-86
2023/08/06 06:23:59;;;;;;;81.47;52.20;;;16.90;89.00;;;;;;4986928;28;90580;-85
2023/08/06 06:26:25;;;;;;;83.18;52.63;;;17.00;88.90;;;;;;4965127;28;89024;-89
2023/08/06 06:28:50;;;;;;;81.28;52.30;;;17.00;89.80;;;;;;4964099;28;92821;-90
2023/08/06 06:31:16;;;;;;;82.53;52.58;;;17.00;88.40;;;;;;4977933;28;91761;-89
2023/08/06 06:33:42;;;;;;;80.88;52.45;;;17.10;88.60;;;;;;4985538;28;92101;-90
2023/08/06 06:36:07;;;;;;;81.38;52.53;;;17.10;87.80;;;;;;5002234;28;89089;-87
2023/08/06 06:38:34;;;;;;;81.45;52.47;;;17.10;89.50;;;;;;4983641;28;89391;-85
2023/08/06 06:41:00;;;;;;;83.32;52.55;;;17.10;88.10;;;;;;4986962;28;90167;-86
2023/08/06 06:43:26;;;;;;;80.53;52.38;;;17.10;89.00;;;;;;4983496;28;92389;-85
2023/08/06 06:46:01;;;;;;;82.22;52.50;;;17.10;88.90;;;;;;4976153;28;90263;-85
2023/08/06 06:48:32;;;;;;;82.88;52.53;;;17.10;89.40;;;;;;4976659;28;89302;-85
2023/08/06 06:50:58;;;;;;;80.78;52.28;;;17.10;88.10;;;;;;4978232;28;90736;-85
2023/08/06 06:53:27;;;;;;;82.13;52.47;;;17.20;88.10;;;;;;4985716;28;92650;-88
2023/08/06 06:56:01;;;;;;;81.47;52.40;;;17.20;88.20;;;;;;4977512;28;92487;-88
2023/08/06 06:58:26;;;;;;;81.13;52.15;;;17.30;89.00;;;;;;4963091;28;89324;-87
2023/08/06 07:00:52;;;;;;;82.63;52.72;;;17.30;87.20;;;;;;4986242;28;91071;-87
2023/08/06 07:03:19;;;;;;;83.00;52.75;;;17.30;88.10;;;;;;4987824;28;89315;-87
2023/08/06 07:05:45;;;;;;;82.43;52.63;;;17.40;87.30;;;;;;4965371;28;90434;-90
2023/08/06 07:08:11;;;;;;;82.43;52.58;;;17.40;88.70;;;;;;4980801;28;89156;-86
2023/08/06 07:10:37;;;;;;;81.60;52.72;;;17.40;86.90;;;;;;4972895;28;90505;-89
2023/08/06 07:13:03;;;;;;;82.93;52.95;;;17.40;87.30;;;;;;4991386;28;94159;-87
2023/08/06 07:15:29;;;;;;;87.45;52.28;;;17.40;88.10;;;;;;4986118;28;91080;-88
2023/08/06 07:17:54;;;;;;;83.70;52.72;;;17.50;87.20;;;;;;4985649;28;92487;-88
2023/08/06 07:20:20;;;;;;;84.30;52.83;;;17.50;87.50;;;;;;4985526;28;89620;-88
2023/08/06 07:22:46;;;;;;;82.70;52.60;;;17.50;87.90;;;;;;4985110;28;89343;-87
2023/08/06 07:25:11;;;;;;;83.75;53.05;;;17.50;86.60;;;;;;4978419;28;93551;-86
2023/08/06 07:27:37;;;;;;;85.60;52.95;;;17.60;86.70;;;;;;4981444;28;89152;-86
2023/08/06 07:30:05;;;;;;;81.88;52.67;;;17.60;87.60;;;;;;4988248;28;91697;-87
2023/08/06 07:32:31;;;;;;;82.55;53.10;;;17.60;86.60;;;;;;4987135;28;90324;-87
2023/08/06 07:35:00;;;;;;;82.82;52.85;;;17.70;86.60;;;;;;4991856;28;89198;-89
2023/08/06 07:37:28;;;;;;;83.15;53.00;;;17.70;85.90;;;;;;4991624;28;89342;-88
2023/08/06 07:39:54;;;;;;;82.85;52.65;;;17.80;86.50;;;;;;4968295;28;91929;-87
2023/08/06 07:42:20;;;;;;;85.20;52.80;;;17.80;86.30;;;;;;4969698;28;93278;-90
2023/08/06 07:44:56;;;;;;;84.88;53.45;;;17.80;86.30;;;;;;4978718;28;93229;-88
2023/08/06 07:47:22;;;;;;;85.20;53.20;;;17.90;86.20;;;;;;4976432;28;88942;-88
2023/08/06 07:49:48;;;;;;;84.40;52.72;;;17.80;86.10;;;;;;4972572;28;89753;-88
2023/08/06 07:52:14;;;;;;;81.32;52.38;;;17.80;86.20;;;;;;4979603;28;89704;-85
2023/08/06 07:54:39;;;;;;;83.30;53.03;;;17.80;86.50;;;;;;4969070;28;92631;-88
2023/08/06 07:57:05;;;;;;;84.13;53.13;;;17.80;86.70;;;;;;4976278;28;90765;-87
2023/08/06 07:59:31;;;;;;;81.63;52.63;;;17.80;86.80;;;;;;4987368;28;93497;-85
2023/08/06 08:01:56;;;;;;;83.28;52.80;;;17.80;86.50;;;;;;4973144;28;89855;-86
2023/08/06 08:04:22;;;;;;;82.90;52.45;;;17.80;87.10;;;;;;4986232;28;90678;-87
2023/08/06 08:06:47;;;;;;;82.65;52.65;;;17.80;86.70;;;;;;4995917;28;89423;-87
2023/08/06 08:09:14;;;;;;;83.05;52.97;;;17.80;87.80;;;;;;4994635;28;92711;-88
2023/08/06 08:11:40;;;;;;;84.57;53.00;;;17.80;89.20;;;;;;4962770;28;92402;-91
2023/08/06 08:14:06;;;;;;;83.60;52.72;;;17.80;88.60;;;;;;4982311;28;90790;-87
2023/08/06 08:16:32;;;;;;;83.35;52.55;;;17.80;87.60;;;;;;4988142;28;89105;-87
2023/08/06 08:18:57;;;;;;;84.18;52.95;;;17.80;87.50;;;;;;4987616;28;91357;-88
2023/08/06 08:21:24;;;;;;;83.35;52.65;;;17.80;87.30;;;;;;4987436;28;92049;-87
2023/08/06 08:23:50;;;;;;;84.30;52.63;;;17.90;87.60;;;;;;5006466;22;92040;-43
2023/08/06 08:26:16;;;;;;;83.22;52.80;;;17.90;81.70;;;;;;4972152;28;90647;-46
2023/08/06 08:28:41;;;;;;;83.60;52.88;;;18.00;82.50;;;;;;4947820;28;91206;-45
2023/08/06 08:31:11;;;;;;;82.85;52.75;;;18.00;84.30;;;;;;4961816;28;89998;-45
2023/08/06 08:33:40;;;;;;;85.25;52.95;;;17.90;82.50;;;;;;4983161;28;90172;-46
2023/08/06 08:36:05;;;;;;;83.18;52.60;;;17.90;80.30;;;;;;4978488;28;89790;-45
2023/08/06 08:38:31;;;;;;;82.45;52.63;;;17.90;81.60;;;;;;4985853;28;93562;-45
2023/08/06 08:40:57;;;;;;;81.95;52.25;;;17.90;81.60;;;;;;4985765;28;89494;-49
2023/08/06 08:43:23;;;;;;;84.45;52.63;;;17.90;80.30;;;;;;4951424;28;94317;-49
2023/08/06 08:45:55;;;;;;;82.75;52.53;;;17.90;80.90;;;;;;4980901;28;90610;-49
2023/08/06 08:48:22;;;;;;;83.38;52.65;;;17.90;79.80;;;;;;4975512;28;90749;-47
2023/08/06 08:50:49;;;;;;;85.95;52.85;;;18.00;80.00;;;;;;4977564;28;94030;-47
2023/08/06 08:53:16;;;;;;;86.57;52.53;;;18.10;78.80;;;;;;4968216;28;94422;-48
2023/08/06 08:55:44;;;;;;;88.18;52.67;;;18.10;78.80;;;;;;4966340;28;89884;-47
2023/08/06 08:58:10;;;;;;;86.30;53.10;;;18.20;80.70;;;;;;4954590;28;90693;-45
2023/08/06 09:00:36;;;;;;;85.03;52.65;;;18.10;80.00;;;;;;4963042;28;88787;-47
2023/08/06 09:03:05;;;;;;;83.95;52.20;;;17.90;78.50;;;;;;4956191;28;92699;-46
2023/08/06 09:05:32;;;;;;;84.93;52.78;;;17.90;80.30;;;;;;4944863;28;92209;-46
2023/08/06 09:08:03;;;;;;;86.40;52.90;;;17.90;79.30;;;;;;4952491;28;91077;-45
2023/08/06 09:10:29;;;;;;;81.97;52.40;;;18.00;80.10;;;;;;4947055;28;93139;-49
2023/08/06 09:12:56;;;;;;;85.20;52.45;;;18.00;78.10;;;;;;4949509;28;94173;-50
2023/08/06 09:15:25;;;;;;;85.10;53.33;;;18.10;78.20;;;;;;4962061;28;89550;-49
2023/08/06 09:17:52;;;;;;;85.43;52.72;;;18.00;79.70;;;;;;4969278;28;93281;-48
2023/08/06 09:20:18;;;;;;;89.40;53.17;;;18.10;77.30;;;;;;4959833;28;92919;-48
2023/08/06 09:22:45;;;;;;;83.63;52.38;;;18.40;77.90;;;;;;4969768;28;94900;-49
2023/08/06 09:25:11;;;;;;;83.60;52.97;;;18.20;74.30;;;;;;4960212;28;89391;-46
2023/08/06 09:27:40;;;;;;;83.35;52.83;;;18.10;76.50;;;;;;4968424;28;93317;-46
2023/08/06 09:30:08;;;;;;;82.10;52.38;;;18.10;76.70;;;;;;4971726;28;90879;-50
2023/08/06 09:32:47;;;;;;;84.82;53.03;;;18.30;79.00;;;;;;4969257;28;90351;-48
2023/08/06 09:35:16;;;;;;;84.00;52.60;;;18.40;76.70;;;;;;4966327;28;89844;-47
2023/08/06 09:37:42;;;;;;;83.38;52.78;;;18.40;76.90;;;;;;4952822;28;89775;-45
2023/08/06 09:40:27;;;;;;;82.22;52.80;;;18.20;78.00;;;;;;4945146;28;96907;-47
2023/08/06 09:42:53;;;;;;;85.43;52.60;;;18.20;79.30;;;;;;4946929;28;89840;-46
2023/08/06 09:45:19;;;;;;;84.20;53.10;;;18.20;79.00;;;;;;4939503;28;90447;-49
2023/08/06 09:47:45;;;;;;;85.53;52.88;;;18.30;79.40;;;;;;4953021;28;90743;-47
2023/08/06 09:50:20;;;;;;;88.25;53.25;;;18.40;78.70;;;;;;4954403;28;89728;-46
2023/08/06 09:52:51;;;;;;;85.97;52.97;;;18.40;76.30;;;;;;4956811;28;89404;-46
2023/08/06 09:55:19;;;;;;;85.35;52.55;;;18.40;75.90;;;;;;4957467;28;92575;-49
2023/08/06 09:57:46;;;;;;;85.13;53.08;;;18.50;77.00;;;;;;4939599;28;92453;-47
2023/08/06 10:00:13;;;;;;;84.32;52.83;;;18.50;75.60;;;;;;4946783;28;90205;-45
2023/08/06 10:02:39;;;;;;;83.80;53.22;;;18.30;77.50;;;;;;4948473;28;91909;-46
2023/08/06 10:05:09;;;;;;;84.07;52.78;;;18.20;78.60;;;;;;4949561;28;93727;-43
2023/08/06 10:07:35;;;;;;;84.60;52.92;;;18.20;83.10;;;;;;4948726;28;89968;-46
2023/08/06 10:10:02;;;;;;;83.75;52.58;;;18.10;83.40;;;;;;4941074;28;93626;-44
2023/08/06 10:12:32;;;;;;;83.78;52.97;;;18.20;83.90;;;;;;4938263;28;92392;-45
2023/08/06 10:15:01;;;;;;;85.13;53.13;;;18.20;84.30;;;;;;4933676;28;89644;-45
2023/08/06 10:17:28;;;;;;;86.05;53.03;;;18.20;84.20;;;;;;4936640;28;90132;-45
2023/08/06 10:19:55;;;;;;;88.20;53.22;;;18.30;84.70;;;;;;4935897;28;91177;-47
2023/08/06 10:22:21;;;;;;;85.47;53.08;;;18.40;84.60;;;;;;4937981;28;93230;-45
2023/08/06 10:24:53;;;;;;;86.30;53.28;;;18.40;85.00;;;;;;4935558;28;90589;-44
2023/08/06 10:27:29;;;;;;;86.70;53.05;;;18.40;85.30;;;;;;4947256;28;91243;-45
2023/08/06 10:29:55;;;;;;;85.85;52.92;;;18.40;84.90;;;;;;4950893;28;89836;-47
2023/08/06 10:32:22;;;;;;;86.10;53.58;;;18.40;85.90;;;;;;4953769;28;92574;-44
2023/08/06 10:34:57;;;;;;;88.07;53.45;;;18.40;86.40;;;;;;4936984;28;91486;-49
2023/08/06 10:37:23;;;;;;;88.10;53.00;;;18.50;85.80;;;;;;4938567;28;91561;-49
2023/08/06 10:39:52;;;;;;;83.95;53.25;;;18.50;85.10;;;;;;4932200;28;98151;-51
2023/08/06 10:42:22;;;;;;;84.97;53.22;;;18.60;85.10;;;;;;4944504;28;91196;-47
2023/08/06 10:45:17;;;;;;;85.22;53.72;;;18.60;85.40;;;;;;4947649;28;91113;-48
2023/08/06 10:47:43;;;;;;;85.20;53.47;;;18.70;84.50;;;;;;4948776;28;92363;-46
2023/08/06 10:50:13;;;;;;;86.60;53.75;;;18.70;86.40;;;;;;4946450;28;91324;-45
2023/08/06 10:52:39;;;;;;;85.13;53.60;;;18.80;84.80;;;;;;4949696;28;89951;-46
2023/08/06 10:55:06;;;;;;;85.25;53.33;;;18.80;84.70;;;;;;4938159;28;91535;-48
2023/08/06 10:57:31;;;;;;;86.88;53.15;;;18.90;84.40;;;;;;4931112;28;90924;-45
2023/08/06 10:59:57;;;;;;;87.70;53.63;;;18.90;83.80;;;;;;4930039;28;92106;-49
2023/08/06 11:02:23;;;;;;;85.45;53.45;;;19.00;83.90;;;;;;4944186;28;90670;-45
2023/08/06 11:04:49;;;;;;;84.80;53.25;;;19.00;83.10;;;;;;4942984;28;93496;-49
2023/08/06 11:07:14;;;;;;;85.68;53.65;;;19.00;82.90;;;;;;4939978;28;91717;-40
2023/08/06 11:09:40;;;;;;;89.93;53.92;;;19.10;83.60;;;;;;4924268;28;92689;-46
2023/08/06 11:12:17;;;;;;;90.80;53.53;;;19.20;84.70;;;;;;4946528;28;94434;-44
2023/08/06 11:14:50;;;;;;;84.57;53.35;;;19.20;84.90;;;;;;4951082;28;90835;-43
2023/08/06 11:17:15;;;;;;;87.38;53.83;;;19.30;82.70;;;;;;4944483;28;90862;-48
2023/08/06 11:19:41;;;;;;;86.72;53.65;;;19.30;83.20;;;;;;4926826;28;92007;-46
2023/08/06 11:22:07;;;;;;;86.80;53.72;;;19.40;83.60;;;;;;4940089;28;90985;-47
2023/08/06 11:24:32;;;;;;;87.10;53.47;;;19.50;82.90;;;;;;4948273;28;89715;-47
2023/08/06 11:26:58;;;;;;;87.47;53.72;;;19.40;82.10;;;;;;4954369;28;91768;-45
2023/08/06 11:29:24;;;;;;;86.60;53.55;;;19.50;81.50;;;;;;4943395;28;93174;-46
2023/08/06 11:31:49;;;;;;;85.38;53.45;;;19.40;81.30;;;;;;4950144;28;89916;-43
2023/08/06 11:34:16;;;;;;;88.35;53.63;;;19.40;81.70;;;;;;4949067;28;91063;-46
2023/08/06 11:36:42;;;;;;;88.97;53.35;;;19.40;82.00;;;;;;4956574;28;91606;-44
2023/08/06 11:39:09;;;;;;;91.38;53.83;;;19.40;81.90;;;;;;4940021;28;90896;-48
2023/08/06 11:41:37;;;;;;;92.10;53.80;;;19.40;82.40;;;;;;4953608;28;90416;-43
2023/08/06 11:44:04;;;;;;;91.38;54.28;;;19.50;82.30;;;;;;4959102;28;90225;-45
2023/08/06 11:46:49;;;;;;;86.95;53.75;;;19.70;79.60;;;;;;4958184;28;90969;-47
2023/08/06 11:49:14;;;;;;;91.03;54.50;;;19.70;79.80;;;;;;4946440;28;89986;-48
2023/08/06 11:51:40;;;;;;;90.45;53.92;;;19.70;79.20;;;;;;4941814;28;91941;-47
2023/08/06 11:54:07;;;;;;;92.07;54.20;;;19.70;80.90;;;;;;4939187;28;92459;-45
2023/08/06 11:56:35;;;;;;;87.78;53.55;;;19.70;79.20;;;;;;4943535;28;91179;-45
2023/08/06 11:59:01;;;;;;;88.50;53.97;;;19.70;80.40;;;;;;4941103;28;94207;-45
2023/08/06 12:01:27;;;;;;;87.95;53.80;;;19.70;80.40;;;;;;4949141;28;91361;-45
2023/08/06 12:03:58;;;;;;;90.47;53.97;;;19.80;79.90;;;;;;4945564;28;91720;-45
2023/08/06 12:06:27;;;;;;;87.00;53.55;;;19.80;77.90;;;;;;4947108;28;94299;-47
2023/08/06 12:08:53;;;;;;;88.82;53.40;;;19.80;80.40;;;;;;4946734;28;92063;-44
2023/08/06 12:11:21;;;;;;;88.45;53.83;;;19.80;80.10;;;;;;4949574;28;92468;-48
2023/08/06 12:13:51;;;;;;;90.43;53.78;;;19.80;79.90;;;;;;4946019;28;91478;-44
2023/08/06 12:16:18;;;;;;;90.47;53.97;;;19.80;79.70;;;;;;4940773;28;91102;-44
2023/08/06 12:18:44;;;;;;;90.40;53.33;;;19.80;80.10;;;;;;4949248;28;91019;-45
2023/08/06 12:21:10;;;;;;;89.03;53.63;;;19.80;80.80;;;;;;4938196;28;91456;-45
2023/08/06 12:23:36;;;;;;;88.03;53.40;;;19.80;81.10;;;;;;4936914;28;90724;-45
2023/08/06 12:26:01;;;;;;;89.70;53.83;;;19.80;80.40;;;;;;4932666;28;91482;-45
2023/08/06 12:28:27;;;;;;;86.53;54.08;;;19.70;81.40;;;;;;4943901;28;92101;-46